sensor_id;sensor_type;location;lat;lon;timestamp;P1;durP1;ratioP1;P2;durP2;ratioP2
64186;SDS011;50491;39.484;-8.540;2022-08-21T00:00:38;2.95;;;1.52;;
64186;SDS011;50491;39.484;-8.540;2022-08-21T00:03:02;3.72;;;1.45;;
64186;SDS011;50491;39.484;-8.540;2022-08-21T00:05:24;5.15;;;1.70;;
64186;SDS011;50491;39.484;-8.540;2022-08-21T00:07:44;1.40;;;1.30;;
64186;SDS011;50491;39.484;-8.540;2022-08-21T00:09:45;4.25;;;1.73;;
64186;SDS011;50491;39.484;-8.540;2022-08-21T00:11:46;2.60;;;1.58;;
64186;SDS011;50491;39.484;-8.540;2022-08-21T00:14:06;1.98;;;1.30;;
64186;SDS011;50491;39.484;-8.540;2022-08-21T00:16:52;3.88;;;1.30;;
64186;SDS011;50491;39.484;-8.540;2022-08-21T00:18:53;1.30;;;1.15;;
64186;SDS011;50491;39.484;-8.540;2022-08-21T00:20:53;1.50;;;1.30;;
64186;SDS011;50491;39.484;-8.540;2022-08-21T00:22:54;2.55;;;1.85;;
64186;SDS011;50491;39.484;-8.540;2022-08-21T00:24:55;1.90;;;1.08;;
64186;SDS011;50491;39.484;-8.540;2022-08-21T00:26:56;2.78;;;1.33;;
64186;SDS011;50491;39.484;-8.540;2022-08-21T00:28:57;1.80;;;1.33;;
64186;SDS011;50491;39.484;-8.540;2022-08-21T00:30:58;5.75;;;2.00;;
64186;SDS011;50491;39.484;-8.540;2022-08-21T00:33:17;4.30;;;1.88;;
64186;SDS011;50491;39.484;-8.540;2022-08-21T00:35:19;2.92;;;1.80;;
64186;SDS011;50491;39.484;-8.540;2022-08-21T00:37:40;4.90;;;1.73;;
64186;SDS011;50491;39.484;-8.540;2022-08-21T00:39:42;2.53;;;1.33;;
64186;SDS011;50491;39.484;-8.540;2022-08-21T00:41:43;3.95;;;2.05;;
64186;SDS011;50491;39.484;-8.540;2022-08-21T00:43:43;2.15;;;1.83;;
64186;SDS011;50491;39.484;-8.540;2022-08-21T00:46:04;3.60;;;2.00;;
64186;SDS011;50491;39.484;-8.540;2022-08-21T00:48:24;4.28;;;1.83;;
64186;SDS011;50491;39.484;-8.540;2022-08-21T00:50:26;4.78;;;2.00;;
64186;SDS011;50491;39.484;-8.540;2022-08-21T00:52:29;3.42;;;2.03;;
64186;SDS011;50491;39.484;-8.540;2022-08-21T00:57:30;4.47;;;1.65;;
64186;SDS011;50491;39.484;-8.540;2022-08-21T01:02:31;3.47;;;2.15;;
64186;SDS011;50491;39.484;-8.540;2022-08-21T01:04:32;2.70;;;1.80;;
64186;SDS011;50491;39.484;-8.540;2022-08-21T01:06:33;2.83;;;2.00;;
64186;SDS011;50491;39.484;-8.540;2022-08-21T01:08:35;3.78;;;1.60;;
64186;SDS011;50491;39.484;-8.540;2022-08-21T01:10:36;1.23;;;1.10;;
64186;SDS011;50491;39.484;-8.540;2022-08-21T01:12:56;5.72;;;1.70;;
64186;SDS011;50491;39.484;-8.540;2022-08-21T01:15:16;5.38;;;1.95;;
64186;SDS011;50491;39.484;-8.540;2022-08-21T01:17:35;5.47;;;2.22;;
64186;SDS011;50491;39.484;-8.540;2022-08-21T01:19:59;13.43;;;2.92;;
64186;SDS011;50491;39.484;-8.540;2022-08-21T01:22:19;2.30;;;1.83;;
64186;SDS011;50491;39.484;-8.540;2022-08-21T01:24:19;5.05;;;2.05;;
64186;SDS011;50491;39.484;-8.540;2022-08-21T01:26:23;2.65;;;1.92;;
64186;SDS011;50491;39.484;-8.540;2022-08-21T01:28:57;3.13;;;2.33;;
64186;SDS011;50491;39.484;-8.540;2022-08-21T01:36:48;3.78;;;1.98;;
64186;SDS011;50491;39.484;-8.540;2022-08-21T01:38:49;2.55;;;1.60;;
64186;SDS011;50491;39.484;-8.540;2022-08-21T01:40:53;2.97;;;1.50;;
64186;SDS011;50491;39.484;-8.540;2022-08-21T01:42:54;1.67;;;1.35;;
64186;SDS011;50491;39.484;-8.540;2022-08-21T01:44:54;2.20;;;1.55;;
64186;SDS011;50491;39.484;-8.540;2022-08-21T01:49:59;6.13;;;2.08;;
64186;SDS011;50491;39.484;-8.540;2022-08-21T01:52:01;3.25;;;1.95;;
64186;SDS011;50491;39.484;-8.540;2022-08-21T01:54:20;4.22;;;2.10;;
64186;SDS011;50491;39.484;-8.540;2022-08-21T01:56:58;5.53;;;2.10;;
64186;SDS011;50491;39.484;-8.540;2022-08-21T01:58:59;2.97;;;1.45;;
64186;SDS011;50491;39.484;-8.540;2022-08-21T02:03:56;3.95;;;2.03;;
64186;SDS011;50491;39.484;-8.540;2022-08-21T02:05:59;2.35;;;1.95;;
64186;SDS011;50491;39.484;-8.540;2022-08-21T02:08:00;1.38;;;1.25;;
64186;SDS011;50491;39.484;-8.540;2022-08-21T02:12:58;1.50;;;1.40;;
64186;SDS011;50491;39.484;-8.540;2022-08-21T02:15:00;4.95;;;2.08;;
64186;SDS011;50491;39.484;-8.540;2022-08-21T02:17:02;3.70;;;1.13;;
64186;SDS011;50491;39.484;-8.540;2022-08-21T02:22:00;4.72;;;1.70;;
64186;SDS011;50491;39.484;-8.540;2022-08-21T02:24:19;2.78;;;1.70;;
64186;SDS011;50491;39.484;-8.540;2022-08-21T02:26:19;1.80;;;1.60;;
64186;SDS011;50491;39.484;-8.540;2022-08-21T02:28:21;1.23;;;1.13;;
64186;SDS011;50491;39.484;-8.540;2022-08-21T02:30:43;3.80;;;1.50;;
64186;SDS011;50491;39.484;-8.540;2022-08-21T02:33:11;1.88;;;1.63;;
64186;SDS011;50491;39.484;-8.540;2022-08-21T02:35:31;3.53;;;1.40;;
64186;SDS011;50491;39.484;-8.540;2022-08-21T02:37:52;3.03;;;1.80;;
64186;SDS011;50491;39.484;-8.540;2022-08-21T02:39:54;4.22;;;1.58;;
64186;SDS011;50491;39.484;-8.540;2022-08-21T02:41:55;4.93;;;1.88;;
64186;SDS011;50491;39.484;-8.540;2022-08-21T02:43:56;5.05;;;2.10;;
64186;SDS011;50491;39.484;-8.540;2022-08-21T02:45:57;2.10;;;1.20;;
64186;SDS011;50491;39.484;-8.540;2022-08-21T02:48:00;2.03;;;1.80;;
64186;SDS011;50491;39.484;-8.540;2022-08-21T02:50:05;3.63;;;1.52;;
64186;SDS011;50491;39.484;-8.540;2022-08-21T02:52:06;5.00;;;1.70;;
64186;SDS011;50491;39.484;-8.540;2022-08-21T02:54:07;5.03;;;1.40;;
64186;SDS011;50491;39.484;-8.540;2022-08-21T02:56:09;1.58;;;1.15;;
64186;SDS011;50491;39.484;-8.540;2022-08-21T02:58:33;5.13;;;1.83;;
64186;SDS011;50491;39.484;-8.540;2022-08-21T03:02:37;1.95;;;1.85;;
64186;SDS011;50491;39.484;-8.540;2022-08-21T03:04:38;1.67;;;1.33;;
64186;SDS011;50491;39.484;-8.540;2022-08-21T03:06:39;4.05;;;2.08;;
64186;SDS011;50491;39.484;-8.540;2022-08-21T03:08:58;3.90;;;1.33;;
64186;SDS011;50491;39.484;-8.540;2022-08-21T03:10:59;3.33;;;1.63;;
64186;SDS011;50491;39.484;-8.540;2022-08-21T03:13:20;6.18;;;1.60;;
64186;SDS011;50491;39.484;-8.540;2022-08-21T03:23:34;1.52;;;1.20;;
64186;SDS011;50491;39.484;-8.540;2022-08-21T03:28:20;2.75;;;1.83;;
64186;SDS011;50491;39.484;-8.540;2022-08-21T03:30:44;2.20;;;1.35;;
64186;SDS011;50491;39.484;-8.540;2022-08-21T03:33:21;2.17;;;1.98;;
64186;SDS011;50491;39.484;-8.540;2022-08-21T03:35:42;3.88;;;1.60;;
64186;SDS011;50491;39.484;-8.540;2022-08-21T03:37:44;1.85;;;1.38;;
64186;SDS011;50491;39.484;-8.540;2022-08-21T03:39:44;1.77;;;1.55;;
64186;SDS011;50491;39.484;-8.540;2022-08-21T03:41:45;2.45;;;1.63;;
64186;SDS011;50491;39.484;-8.540;2022-08-21T03:43:47;3.35;;;1.98;;
64186;SDS011;50491;39.484;-8.540;2022-08-21T03:45:48;2.88;;;1.77;;
64186;SDS011;50491;39.484;-8.540;2022-08-21T03:47:53;2.13;;;1.45;;
64186;SDS011;50491;39.484;-8.540;2022-08-21T03:49:57;1.40;;;1.13;;
64186;SDS011;50491;39.484;-8.540;2022-08-21T03:51:58;8.20;;;1.92;;
64186;SDS011;50491;39.484;-8.540;2022-08-21T03:53:58;4.63;;;1.70;;
64186;SDS011;50491;39.484;-8.540;2022-08-21T03:55:59;4.45;;;1.88;;
64186;SDS011;50491;39.484;-8.540;2022-08-21T03:58:00;6.18;;;1.88;;
64186;SDS011;50491;39.484;-8.540;2022-08-21T04:00:26;5.97;;;1.75;;
64186;SDS011;50491;39.484;-8.540;2022-08-21T04:02:45;3.15;;;1.52;;
64186;SDS011;50491;39.484;-8.540;2022-08-21T04:04:47;3.28;;;1.40;;
64186;SDS011;50491;39.484;-8.540;2022-08-21T04:06:47;3.45;;;1.58;;
64186;SDS011;50491;39.484;-8.540;2022-08-21T04:11:09;2.40;;;1.90;;
64186;SDS011;50491;39.484;-8.540;2022-08-21T04:13:12;1.63;;;1.45;;
64186;SDS011;50491;39.484;-8.540;2022-08-21T04:21:13;4.95;;;1.50;;
64186;SDS011;50491;39.484;-8.540;2022-08-21T04:28:49;1.40;;;1.30;;
64186;SDS011;50491;39.484;-8.540;2022-08-21T04:33:47;3.53;;;1.30;;
64186;SDS011;50491;39.484;-8.540;2022-08-21T04:35:48;1.80;;;1.50;;
64186;SDS011;50491;39.484;-8.540;2022-08-21T04:38:07;3.75;;;1.40;;
64186;SDS011;50491;39.484;-8.540;2022-08-21T04:40:09;3.53;;;1.48;;
64186;SDS011;50491;39.484;-8.540;2022-08-21T04:42:10;1.40;;;1.30;;
64186;SDS011;50491;39.484;-8.540;2022-08-21T04:44:30;6.53;;;1.50;;
64186;SDS011;50491;39.484;-8.540;2022-08-21T04:46:31;2.85;;;1.92;;
64186;SDS011;50491;39.484;-8.540;2022-08-21T04:56:25;1.83;;;1.73;;
64186;SDS011;50491;39.484;-8.540;2022-08-21T04:58:45;2.50;;;1.38;;
64186;SDS011;50491;39.484;-8.540;2022-08-21T05:01:09;2.13;;;1.60;;
64186;SDS011;50491;39.484;-8.540;2022-08-21T05:03:13;2.05;;;1.77;;
64186;SDS011;50491;39.484;-8.540;2022-08-21T05:05:33;4.13;;;1.48;;
64186;SDS011;50491;39.484;-8.540;2022-08-21T05:07:34;4.97;;;1.70;;
64186;SDS011;50491;39.484;-8.540;2022-08-21T05:09:35;1.63;;;1.38;;
64186;SDS011;50491;39.484;-8.540;2022-08-21T05:11:56;3.67;;;1.42;;
64186;SDS011;50491;39.484;-8.540;2022-08-21T05:14:16;3.97;;;1.30;;
64186;SDS011;50491;39.484;-8.540;2022-08-21T05:16:35;2.75;;;1.65;;
64186;SDS011;50491;39.484;-8.540;2022-08-21T05:18:36;2.47;;;1.40;;
64186;SDS011;50491;39.484;-8.540;2022-08-21T05:20:37;1.60;;;1.38;;
64186;SDS011;50491;39.484;-8.540;2022-08-21T05:22:37;4.10;;;1.50;;
64186;SDS011;50491;39.484;-8.540;2022-08-21T05:24:38;2.78;;;1.60;;
64186;SDS011;50491;39.484;-8.540;2022-08-21T05:26:58;2.45;;;1.75;;
64186;SDS011;50491;39.484;-8.540;2022-08-21T05:29:17;2.28;;;1.90;;
64186;SDS011;50491;39.484;-8.540;2022-08-21T05:31:37;1.85;;;1.42;;
64186;SDS011;50491;39.484;-8.540;2022-08-21T05:33:38;3.75;;;1.50;;
64186;SDS011;50491;39.484;-8.540;2022-08-21T05:35:39;1.88;;;1.38;;
64186;SDS011;50491;39.484;-8.540;2022-08-21T05:41:08;1.90;;;1.17;;
64186;SDS011;50491;39.484;-8.540;2022-08-21T05:43:34;4.95;;;1.67;;
64186;SDS011;50491;39.484;-8.540;2022-08-21T05:45:36;1.52;;;1.42;;
64186;SDS011;50491;39.484;-8.540;2022-08-21T05:47:55;2.83;;;1.70;;
64186;SDS011;50491;39.484;-8.540;2022-08-21T05:49:56;4.10;;;2.10;;
64186;SDS011;50491;39.484;-8.540;2022-08-21T05:51:56;3.72;;;1.85;;
64186;SDS011;50491;39.484;-8.540;2022-08-21T05:53:57;2.10;;;1.48;;
64186;SDS011;50491;39.484;-8.540;2022-08-21T05:55:58;5.10;;;1.77;;
64186;SDS011;50491;39.484;-8.540;2022-08-21T06:00:43;2.58;;;1.45;;
64186;SDS011;50491;39.484;-8.540;2022-08-21T06:02:45;2.00;;;1.58;;
64186;SDS011;50491;39.484;-8.540;2022-08-21T06:04:46;2.35;;;1.73;;
64186;SDS011;50491;39.484;-8.540;2022-08-21T06:06:47;4.68;;;1.95;;
64186;SDS011;50491;39.484;-8.540;2022-08-21T06:08:48;2.88;;;1.70;;
64186;SDS011;50491;39.484;-8.540;2022-08-21T06:11:07;3.85;;;1.75;;
64186;SDS011;50491;39.484;-8.540;2022-08-21T06:13:09;2.33;;;2.10;;
64186;SDS011;50491;39.484;-8.540;2022-08-21T06:15:10;3.38;;;1.83;;
64186;SDS011;50491;39.484;-8.540;2022-08-21T06:17:12;3.22;;;1.90;;
64186;SDS011;50491;39.484;-8.540;2022-08-21T06:19:14;3.20;;;1.73;;
64186;SDS011;50491;39.484;-8.540;2022-08-21T06:21:34;2.38;;;1.50;;
64186;SDS011;50491;39.484;-8.540;2022-08-21T06:23:53;1.75;;;1.63;;
64186;SDS011;50491;39.484;-8.540;2022-08-21T06:25:54;2.75;;;1.70;;
64186;SDS011;50491;39.484;-8.540;2022-08-21T06:28:13;6.43;;;1.58;;
64186;SDS011;50491;39.484;-8.540;2022-08-21T06:30:45;3.17;;;1.50;;
64186;SDS011;50491;39.484;-8.540;2022-08-21T06:32:45;3.50;;;1.55;;
64186;SDS011;50491;39.484;-8.540;2022-08-21T06:34:46;5.20;;;2.03;;
64186;SDS011;50491;39.484;-8.540;2022-08-21T06:39:06;3.78;;;2.17;;
64186;SDS011;50491;39.484;-8.540;2022-08-21T06:41:07;2.20;;;1.27;;
64186;SDS011;50491;39.484;-8.540;2022-08-21T06:43:10;1.88;;;1.50;;
64186;SDS011;50491;39.484;-8.540;2022-08-21T06:45:13;4.22;;;1.70;;
64186;SDS011;50491;39.484;-8.540;2022-08-21T06:50:11;3.03;;;2.03;;
64186;SDS011;50491;39.484;-8.540;2022-08-21T06:52:42;5.60;;;1.92;;
64186;SDS011;50491;39.484;-8.540;2022-08-21T06:54:43;1.77;;;1.50;;
64186;SDS011;50491;39.484;-8.540;2022-08-21T06:56:44;1.88;;;1.25;;
64186;SDS011;50491;39.484;-8.540;2022-08-21T06:59:04;1.77;;;1.60;;
64186;SDS011;50491;39.484;-8.540;2022-08-21T07:04:08;5.95;;;1.30;;
64186;SDS011;50491;39.484;-8.540;2022-08-21T07:06:27;2.53;;;0.98;;
64186;SDS011;50491;39.484;-8.540;2022-08-21T07:08:46;2.67;;;1.40;;
64186;SDS011;50491;39.484;-8.540;2022-08-21T07:10:47;4.75;;;1.60;;
64186;SDS011;50491;39.484;-8.540;2022-08-21T07:12:49;1.48;;;1.30;;
64186;SDS011;50491;39.484;-8.540;2022-08-21T07:15:09;2.00;;;1.30;;
64186;SDS011;50491;39.484;-8.540;2022-08-21T07:24:01;1.95;;;1.73;;
64186;SDS011;50491;39.484;-8.540;2022-08-21T07:26:21;4.63;;;1.50;;
64186;SDS011;50491;39.484;-8.540;2022-08-21T07:28:23;3.67;;;2.25;;
64186;SDS011;50491;39.484;-8.540;2022-08-21T07:30:42;3.25;;;1.10;;
64186;SDS011;50491;39.484;-8.540;2022-08-21T07:33:51;1.60;;;1.27;;
64186;SDS011;50491;39.484;-8.540;2022-08-21T07:35:52;2.08;;;1.45;;
64186;SDS011;50491;39.484;-8.540;2022-08-21T07:38:11;1.33;;;1.00;;
64186;SDS011;50491;39.484;-8.540;2022-08-21T07:40:12;2.28;;;1.38;;
64186;SDS011;50491;39.484;-8.540;2022-08-21T07:42:13;3.80;;;1.08;;
64186;SDS011;50491;39.484;-8.540;2022-08-21T07:56:08;4.95;;;1.83;;
64186;SDS011;50491;39.484;-8.540;2022-08-21T08:01:57;1.80;;;1.20;;
64186;SDS011;50491;39.484;-8.540;2022-08-21T08:04:16;5.65;;;1.70;;
64186;SDS011;50491;39.484;-8.540;2022-08-21T08:06:42;5.50;;;2.60;;
64186;SDS011;50491;39.484;-8.540;2022-08-21T08:08:43;1.67;;;1.13;;
64186;SDS011;50491;39.484;-8.540;2022-08-21T08:11:03;2.00;;;1.30;;
64186;SDS011;50491;39.484;-8.540;2022-08-21T08:16:03;2.65;;;1.30;;
64186;SDS011;50491;39.484;-8.540;2022-08-21T08:18:23;1.65;;;1.20;;
64186;SDS011;50491;39.484;-8.540;2022-08-21T08:20:42;3.17;;;1.80;;
64186;SDS011;50491;39.484;-8.540;2022-08-21T08:23:01;1.05;;;0.95;;
64186;SDS011;50491;39.484;-8.540;2022-08-21T08:25:02;2.83;;;1.15;;
64186;SDS011;50491;39.484;-8.540;2022-08-21T08:32:57;1.42;;;1.25;;
64186;SDS011;50491;39.484;-8.540;2022-08-21T08:40:33;2.47;;;1.50;;
64186;SDS011;50491;39.484;-8.540;2022-08-21T08:42:58;3.10;;;1.40;;
64186;SDS011;50491;39.484;-8.540;2022-08-21T08:49:22;1.83;;;1.35;;
64186;SDS011;50491;39.484;-8.540;2022-08-21T08:51:21;2.95;;;1.42;;
64186;SDS011;50491;39.484;-8.540;2022-08-21T08:53:29;1.83;;;1.30;;
64186;SDS011;50491;39.484;-8.540;2022-08-21T08:55:33;5.72;;;1.52;;
64186;SDS011;50491;39.484;-8.540;2022-08-21T08:57:54;3.53;;;1.00;;
64186;SDS011;50491;39.484;-8.540;2022-08-21T09:00:15;2.10;;;1.58;;
64186;SDS011;50491;39.484;-8.540;2022-08-21T09:02:40;4.90;;;2.10;;
64186;SDS011;50491;39.484;-8.540;2022-08-21T09:05:44;2.00;;;1.20;;
64186;SDS011;50491;39.484;-8.540;2022-08-21T09:15:52;1.33;;;1.23;;
64186;SDS011;50491;39.484;-8.540;2022-08-21T09:29:52;2.17;;;1.27;;
64186;SDS011;50491;39.484;-8.540;2022-08-21T09:32:31;3.40;;;1.33;;
64186;SDS011;50491;39.484;-8.540;2022-08-21T09:34:55;2.78;;;1.55;;
64186;SDS011;50491;39.484;-8.540;2022-08-21T09:37:01;2.65;;;1.58;;
64186;SDS011;50491;39.484;-8.540;2022-08-21T09:39:02;2.55;;;1.60;;
64186;SDS011;50491;39.484;-8.540;2022-08-21T09:41:04;2.60;;;1.60;;
64186;SDS011;50491;39.484;-8.540;2022-08-21T09:43:27;3.92;;;1.45;;
64186;SDS011;50491;39.484;-8.540;2022-08-21T09:45:49;1.02;;;0.93;;
64186;SDS011;50491;39.484;-8.540;2022-08-21T09:48:10;2.60;;;1.13;;
64186;SDS011;50491;39.484;-8.540;2022-08-21T09:50:38;0.93;;;0.93;;
64186;SDS011;50491;39.484;-8.540;2022-08-21T09:52:58;4.18;;;1.38;;
64186;SDS011;50491;39.484;-8.540;2022-08-21T09:55:21;5.57;;;1.65;;
64186;SDS011;50491;39.484;-8.540;2022-08-21T09:57:46;0.88;;;0.82;;
64186;SDS011;50491;39.484;-8.540;2022-08-21T09:59:48;2.53;;;1.00;;
64186;SDS011;50491;39.484;-8.540;2022-08-21T10:04:22;1.55;;;1.45;;
64186;SDS011;50491;39.484;-8.540;2022-08-21T10:06:25;1.13;;;0.93;;
64186;SDS011;50491;39.484;-8.540;2022-08-21T10:08:28;3.00;;;1.75;;
64186;SDS011;50491;39.484;-8.540;2022-08-21T10:10:50;3.13;;;1.50;;
64186;SDS011;50491;39.484;-8.540;2022-08-21T10:13:05;1.88;;;1.23;;
64186;SDS011;50491;39.484;-8.540;2022-08-21T10:15:27;1.92;;;1.17;;
64186;SDS011;50491;39.484;-8.540;2022-08-21T10:20:14;1.65;;;1.23;;
64186;SDS011;50491;39.484;-8.540;2022-08-21T10:22:29;2.03;;;1.25;;
64186;SDS011;50491;39.484;-8.540;2022-08-21T10:29:16;1.02;;;0.82;;
64186;SDS011;50491;39.484;-8.540;2022-08-21T10:40:42;3.70;;;1.27;;
64186;SDS011;50491;39.484;-8.540;2022-08-21T10:46:14;1.63;;;0.80;;
64186;SDS011;50491;39.484;-8.540;2022-08-21T10:48:54;1.88;;;1.30;;
64186;SDS011;50491;39.484;-8.540;2022-08-21T11:01:49;1.23;;;0.95;;
64186;SDS011;50491;39.484;-8.540;2022-08-21T11:04:14;1.30;;;0.85;;
64186;SDS011;50491;39.484;-8.540;2022-08-21T11:08:42;3.70;;;1.35;;
64186;SDS011;50491;39.484;-8.540;2022-08-21T11:10:47;3.53;;;1.23;;
64186;SDS011;50491;39.484;-8.540;2022-08-21T11:13:13;2.67;;;1.30;;
64186;SDS011;50491;39.484;-8.540;2022-08-21T11:18:32;2.50;;;2.23;;
64186;SDS011;50491;39.484;-8.540;2022-08-21T11:21:01;1.77;;;1.20;;
64186;SDS011;50491;39.484;-8.540;2022-08-21T11:23:07;2.17;;;1.02;;
64186;SDS011;50491;39.484;-8.540;2022-08-21T11:25:34;2.08;;;1.30;;
64186;SDS011;50491;39.484;-8.540;2022-08-21T11:27:38;1.80;;;1.10;;
64186;SDS011;50491;39.484;-8.540;2022-08-21T11:30:02;1.33;;;0.90;;
64186;SDS011;50491;39.484;-8.540;2022-08-21T11:35:10;1.98;;;1.33;;
64186;SDS011;50491;39.484;-8.540;2022-08-21T11:40:34;3.80;;;1.10;;
64186;SDS011;50491;39.484;-8.540;2022-08-21T11:52:52;4.68;;;1.35;;
64186;SDS011;50491;39.484;-8.540;2022-08-21T11:58:04;3.90;;;1.35;;
64186;SDS011;50491;39.484;-8.540;2022-08-21T12:03:16;2.33;;;1.10;;
64186;SDS011;50491;39.484;-8.540;2022-08-21T12:13:39;4.03;;;1.27;;
64186;SDS011;50491;39.484;-8.540;2022-08-21T12:16:13;1.08;;;0.80;;
64186;SDS011;50491;39.484;-8.540;2022-08-21T12:18:49;1.88;;;0.98;;
64186;SDS011;50491;39.484;-8.540;2022-08-21T12:20:44;3.45;;;1.92;;
64186;SDS011;50491;39.484;-8.540;2022-08-21T12:25:03;4.43;;;0.95;;
64186;SDS011;50491;39.484;-8.540;2022-08-21T12:27:47;6.18;;;1.27;;
64186;SDS011;50491;39.484;-8.540;2022-08-21T12:30:32;2.78;;;1.17;;
64186;SDS011;50491;39.484;-8.540;2022-08-21T12:32:55;2.90;;;1.40;;
64186;SDS011;50491;39.484;-8.540;2022-08-21T12:35:18;3.00;;;1.38;;
64186;SDS011;50491;39.484;-8.540;2022-08-21T12:37:39;3.10;;;1.13;;
64186;SDS011;50491;39.484;-8.540;2022-08-21T12:39:43;4.55;;;1.63;;
64186;SDS011;50491;39.484;-8.540;2022-08-21T12:44:12;2.65;;;1.17;;
64186;SDS011;50491;39.484;-8.540;2022-08-21T12:46:18;5.75;;;1.58;;
64186;SDS011;50491;39.484;-8.540;2022-08-21T12:48:25;3.45;;;1.63;;
64186;SDS011;50491;39.484;-8.540;2022-08-21T12:50:37;2.20;;;0.88;;
64186;SDS011;50491;39.484;-8.540;2022-08-21T12:55:11;7.05;;;1.23;;
64186;SDS011;50491;39.484;-8.540;2022-08-21T12:57:22;3.15;;;1.00;;
64186;SDS011;50491;39.484;-8.540;2022-08-21T13:02:00;2.65;;;1.27;;
64186;SDS011;50491;39.484;-8.540;2022-08-21T13:04:24;3.85;;;1.80;;
64186;SDS011;50491;39.484;-8.540;2022-08-21T13:06:47;4.95;;;1.60;;
64186;SDS011;50491;39.484;-8.540;2022-08-21T13:08:48;4.13;;;1.52;;
64186;SDS011;50491;39.484;-8.540;2022-08-21T13:10:58;3.35;;;1.63;;
64186;SDS011;50491;39.484;-8.540;2022-08-21T13:13:03;3.30;;;1.40;;
64186;SDS011;50491;39.484;-8.540;2022-08-21T13:18:22;6.05;;;2.13;;
64186;SDS011;50491;39.484;-8.540;2022-08-21T13:20:42;3.13;;;1.35;;
64186;SDS011;50491;39.484;-8.540;2022-08-21T13:22:43;2.28;;;1.55;;
64186;SDS011;50491;39.484;-8.540;2022-08-21T13:24:46;3.55;;;1.30;;
64186;SDS011;50491;39.484;-8.540;2022-08-21T13:26:48;4.05;;;1.27;;
64186;SDS011;50491;39.484;-8.540;2022-08-21T13:28:49;4.80;;;1.63;;
64186;SDS011;50491;39.484;-8.540;2022-08-21T13:30:51;6.15;;;1.92;;
64186;SDS011;50491;39.484;-8.540;2022-08-21T13:39:11;3.75;;;1.42;;
64186;SDS011;50491;39.484;-8.540;2022-08-21T13:41:32;7.55;;;1.50;;
64186;SDS011;50491;39.484;-8.540;2022-08-21T13:45:34;2.25;;;1.35;;
64186;SDS011;50491;39.484;-8.540;2022-08-21T13:47:35;1.98;;;1.17;;
64186;SDS011;50491;39.484;-8.540;2022-08-21T13:49:37;3.92;;;1.40;;
64186;SDS011;50491;39.484;-8.540;2022-08-21T13:51:40;3.28;;;1.33;;
64186;SDS011;50491;39.484;-8.540;2022-08-21T13:54:00;4.03;;;1.30;;
64186;SDS011;50491;39.484;-8.540;2022-08-21T13:56:52;1.63;;;1.00;;
64186;SDS011;50491;39.484;-8.540;2022-08-21T13:58:53;4.72;;;1.13;;
64186;SDS011;50491;39.484;-8.540;2022-08-21T14:00:55;1.98;;;0.93;;
64186;SDS011;50491;39.484;-8.540;2022-08-21T14:03:34;5.22;;;1.13;;
64186;SDS011;50491;39.484;-8.540;2022-08-21T14:06:00;1.70;;;1.30;;
64186;SDS011;50491;39.484;-8.540;2022-08-21T14:08:23;1.40;;;0.77;;
64186;SDS011;50491;39.484;-8.540;2022-08-21T14:11:12;6.97;;;1.90;;
64186;SDS011;50491;39.484;-8.540;2022-08-21T14:16:12;2.67;;;1.25;;
64186;SDS011;50491;39.484;-8.540;2022-08-21T14:18:45;2.97;;;1.40;;
64186;SDS011;50491;39.484;-8.540;2022-08-21T14:21:11;4.15;;;1.20;;
64186;SDS011;50491;39.484;-8.540;2022-08-21T14:23:32;3.58;;;0.88;;
64186;SDS011;50491;39.484;-8.540;2022-08-21T14:25:51;8.30;;;1.17;;
64186;SDS011;50491;39.484;-8.540;2022-08-21T14:28:26;3.03;;;1.15;;
64186;SDS011;50491;39.484;-8.540;2022-08-21T14:30:47;3.63;;;1.20;;
64186;SDS011;50491;39.484;-8.540;2022-08-21T14:35:57;2.75;;;1.38;;
64186;SDS011;50491;39.484;-8.540;2022-08-21T14:38:18;2.17;;;1.15;;
64186;SDS011;50491;39.484;-8.540;2022-08-21T14:42:58;4.28;;;1.58;;
64186;SDS011;50491;39.484;-8.540;2022-08-21T14:45:36;2.35;;;1.13;;
64186;SDS011;50491;39.484;-8.540;2022-08-21T14:47:59;2.80;;;0.90;;
64186;SDS011;50491;39.484;-8.540;2022-08-21T14:54:57;1.25;;;0.85;;
64186;SDS011;50491;39.484;-8.540;2022-08-21T14:57:16;2.80;;;0.90;;
64186;SDS011;50491;39.484;-8.540;2022-08-21T14:59:17;2.55;;;1.27;;
64186;SDS011;50491;39.484;-8.540;2022-08-21T15:01:20;1.85;;;0.88;;
64186;SDS011;50491;39.484;-8.540;2022-08-21T15:03:22;1.08;;;0.88;;
64186;SDS011;50491;39.484;-8.540;2022-08-21T15:05:23;1.15;;;0.85;;
64186;SDS011;50491;39.484;-8.540;2022-08-21T15:07:23;2.67;;;1.02;;
64186;SDS011;50491;39.484;-8.540;2022-08-21T15:09:24;2.75;;;1.00;;
64186;SDS011;50491;39.484;-8.540;2022-08-21T15:11:25;5.32;;;0.77;;
64186;SDS011;50491;39.484;-8.540;2022-08-21T15:13:26;2.58;;;1.17;;
64186;SDS011;50491;39.484;-8.540;2022-08-21T15:15:29;2.45;;;1.05;;
64186;SDS011;50491;39.484;-8.540;2022-08-21T15:17:30;1.20;;;0.70;;
64186;SDS011;50491;39.484;-8.540;2022-08-21T15:19:30;3.50;;;1.15;;
64186;SDS011;50491;39.484;-8.540;2022-08-21T15:21:31;1.83;;;0.70;;
64186;SDS011;50491;39.484;-8.540;2022-08-21T15:23:51;2.28;;;1.00;;
64186;SDS011;50491;39.484;-8.540;2022-08-21T15:25:51;2.25;;;1.20;;
64186;SDS011;50491;39.484;-8.540;2022-08-21T15:27:53;1.83;;;0.82;;
64186;SDS011;50491;39.484;-8.540;2022-08-21T15:30:12;0.93;;;0.75;;
64186;SDS011;50491;39.484;-8.540;2022-08-21T15:32:31;2.05;;;0.73;;
64186;SDS011;50491;39.484;-8.540;2022-08-21T15:34:32;3.25;;;0.68;;
64186;SDS011;50491;39.484;-8.540;2022-08-21T15:36:32;2.38;;;1.10;;
64186;SDS011;50491;39.484;-8.540;2022-08-21T15:38:33;4.03;;;0.98;;
64186;SDS011;50491;39.484;-8.540;2022-08-21T15:40:34;1.40;;;0.85;;
64186;SDS011;50491;39.484;-8.540;2022-08-21T15:42:37;6.90;;;0.98;;
64186;SDS011;50491;39.484;-8.540;2022-08-21T15:51:10;1.70;;;1.00;;
64186;SDS011;50491;39.484;-8.540;2022-08-21T15:53:14;1.80;;;1.15;;
64186;SDS011;50491;39.484;-8.540;2022-08-21T15:55:15;2.78;;;1.33;;
64186;SDS011;50491;39.484;-8.540;2022-08-21T15:57:19;0.90;;;0.73;;
64186;SDS011;50491;39.484;-8.540;2022-08-21T15:59:50;2.13;;;1.15;;
64186;SDS011;50491;39.484;-8.540;2022-08-21T16:01:58;1.88;;;1.30;;
64186;SDS011;50491;39.484;-8.540;2022-08-21T16:04:19;2.53;;;0.90;;
64186;SDS011;50491;39.484;-8.540;2022-08-21T16:06:21;2.90;;;1.17;;
64186;SDS011;50491;39.484;-8.540;2022-08-21T16:08:40;2.22;;;1.10;;
64186;SDS011;50491;39.484;-8.540;2022-08-21T16:10:41;3.45;;;1.00;;
64186;SDS011;50491;39.484;-8.540;2022-08-21T16:12:42;1.48;;;1.02;;
64186;SDS011;50491;39.484;-8.540;2022-08-21T16:24:45;4.00;;;0.95;;
64186;SDS011;50491;39.484;-8.540;2022-08-21T16:26:45;1.27;;;0.75;;
64186;SDS011;50491;39.484;-8.540;2022-08-21T16:29:07;1.27;;;0.80;;
64186;SDS011;50491;39.484;-8.540;2022-08-21T16:31:27;1.45;;;0.65;;
64186;SDS011;50491;39.484;-8.540;2022-08-21T16:38:43;0.95;;;0.47;;
64186;SDS011;50491;39.484;-8.540;2022-08-21T16:40:44;1.77;;;0.77;;
64186;SDS011;50491;39.484;-8.540;2022-08-21T16:43:03;0.70;;;0.50;;
64186;SDS011;50491;39.484;-8.540;2022-08-21T16:45:13;0.93;;;0.35;;
64186;SDS011;50491;39.484;-8.540;2022-08-21T16:47:16;1.92;;;0.50;;
64186;SDS011;50491;39.484;-8.540;2022-08-21T16:49:17;0.88;;;0.35;;
64186;SDS011;50491;39.484;-8.540;2022-08-21T16:51:18;0.28;;;0.28;;
64186;SDS011;50491;39.484;-8.540;2022-08-21T16:53:37;1.13;;;0.47;;
64186;SDS011;50491;39.484;-8.540;2022-08-21T16:55:37;0.38;;;0.38;;
64186;SDS011;50491;39.484;-8.540;2022-08-21T16:58:27;2.08;;;0.40;;
64186;SDS011;50491;39.484;-8.540;2022-08-21T17:01:15;0.43;;;0.20;;
64186;SDS011;50491;39.484;-8.540;2022-08-21T17:05:57;0.70;;;0.32;;
64186;SDS011;50491;39.484;-8.540;2022-08-21T17:08:17;0.70;;;0.43;;
64186;SDS011;50491;39.484;-8.540;2022-08-21T17:12:56;0.45;;;0.38;;
64186;SDS011;50491;39.484;-8.540;2022-08-21T17:15:00;1.88;;;0.30;;
64186;SDS011;50491;39.484;-8.540;2022-08-21T17:22:35;0.22;;;0.17;;
64186;SDS011;50491;39.484;-8.540;2022-08-21T17:27:15;0.50;;;0.40;;
64186;SDS011;50491;39.484;-8.540;2022-08-21T17:29:17;2.78;;;0.30;;